Athol, ID

7:21 PM PDT on October 22, 2014 (GMT -0700)
Ramsey Estates | Change Station
CLOSE
Current Station
Personal Weather Station
Location: Rathdrum, ID
Elevation: 710 m
Nearby Weather Stations

Elev 710 m 47.87 °N, 116.81 °W | Updated 8 seconds ago

Overcast
Overcast
9.7 °C
Feels Like 10 °C
N
0.0
Wind Variable Wind from SE
Gusts 0.0 km/h

Today
High -- | Low -- °C
--% Chance of Precip.
Yesterday
High -- | Low -- °C
Precip. -- mm
7:16 AM 5:45 PM
Waning Crescent, 1% visible
Pressure 1009 hPa
Visibility 16.1 kilometers
Clouds Few 1524 m
Mostly Cloudy 2133 m
Windchill 10 °C
Dew Point -4 °C
Humidity 39%
Rainfall 0 mm
Snow Depth Not available.
UV 0 out of 12
Pollen 1.10 out of 12
Air Quality Not available.
Flu Activity Sporadic
METAR KCOE 230215Z AUTO 01007KT 10SM FEW050 BKN070 11/07 A2979 RMK AO1

More Conditions Fewer Conditions

Pressure 1009 hPa
Visibility 16.1 kilometers
Clouds Few 1524 m
Mostly Cloudy 2133 m
Windchill 10 °C
Dew Point -4 °C
Humidity 39%
Rainfall 0 mm
Snow Depth Not available.
UV 0 out of 12
Pollen 1.10 out of 12
Air Quality Not available.
Flu Activity Sporadic
METAR KCOE 230215Z AUTO 01007KT 10SM FEW050 BKN070 11/07 A2979 RMK AO1

More Conditions Fewer Conditions

10-Day Weather Forecast

Almanac

Astronomy

Oct. 22, 2014 Rise Set
Actual Time 7:16 AM PDT 5:45 PM PDT
Civil Twilight 6:44 AM PDT 6:16 PM PDT
Nautical Twilight 6:08 AM PDT 6:52 PM PDT
Astronomical Twilight 5:32 AM PDT 7:28 PM PDT
Moon 5:57 AM PDT (10/22) 5:17 PM PDT (10/22)
Length of Visible Light 11h 31m
Length of Day
10h 28m
Tomorrow will be 3m 17s shorter.
Waning Crescent, 1% of the Moon is Illuminated
Today
Waning Crescent
Oct 23
New
Oct 30
First Quarter
Nov 6
Full
Nov 14
Last Quarter

Today's Extremes

State Highs State Lows

Community

WunderPhotos

Upload Photos

1,764,109 photos uploaded!

Nearby

Snow Depth

Station Depth Elevation
Mosquito Ridge 0 in 5200 ft
Schweitzer Basin 0 in 6090 ft
Bear Mountain 0 in 5400 ft
Sunset 0 in 5540 ft
Humboldt Gulch 1 in 4250 ft

Earthquake Activity

City Distance Mag. Time & Date
No recent earthquake activity has been reported nearby.
Minimum magnitude displayed is 2.5.

Coastal Water Temperatures

Place Temperature
No Stations Reporting

Nearby Weather Stations